sensor_id;sensor_type;location;lat;lon;timestamp;P1;durP1;ratioP1;P2;durP2;ratioP2
77449;SDS011;66536;53.150;18.172;2023-07-22T00:00:50;4.30;;;2.50;;
77449;SDS011;66536;53.150;18.172;2023-07-22T00:03:32;2.90;;;2.30;;
77449;SDS011;66536;53.150;18.172;2023-07-22T00:06:06;4.00;;;2.20;;
77449;SDS011;66536;53.150;18.172;2023-07-22T00:08:35;3.10;;;2.30;;
77449;SDS011;66536;53.150;18.172;2023-07-22T00:11:03;4.20;;;2.30;;
77449;SDS011;66536;53.150;18.172;2023-07-22T00:13:31;5.90;;;2.30;;
77449;SDS011;66536;53.150;18.172;2023-07-22T00:16:00;4.60;;;2.30;;
77449;SDS011;66536;53.150;18.172;2023-07-22T00:18:30;7.30;;;2.40;;
77449;SDS011;66536;53.150;18.172;2023-07-22T00:20:57;4.40;;;2.70;;
77449;SDS011;66536;53.150;18.172;2023-07-22T00:23:27;5.10;;;2.40;;
77449;SDS011;66536;53.150;18.172;2023-07-22T00:25:53;5.00;;;2.60;;
77449;SDS011;66536;53.150;18.172;2023-07-22T00:28:20;2.40;;;1.70;;
77449;SDS011;66536;53.150;18.172;2023-07-22T00:30:47;4.00;;;2.20;;
77449;SDS011;66536;53.150;18.172;2023-07-22T00:33:15;3.10;;;2.40;;
77449;SDS011;66536;53.150;18.172;2023-07-22T00:35:50;4.20;;;2.20;;
77449;SDS011;66536;53.150;18.172;2023-07-22T00:38:18;4.50;;;2.10;;
77449;SDS011;66536;53.150;18.172;2023-07-22T00:40:45;4.10;;;2.30;;
77449;SDS011;66536;53.150;18.172;2023-07-22T00:43:17;3.80;;;2.20;;
77449;SDS011;66536;53.150;18.172;2023-07-22T00:45:44;4.10;;;2.30;;
77449;SDS011;66536;53.150;18.172;2023-07-22T00:48:11;4.70;;;2.10;;
77449;SDS011;66536;53.150;18.172;2023-07-22T00:50:39;3.70;;;2.10;;
77449;SDS011;66536;53.150;18.172;2023-07-22T00:53:07;3.90;;;2.10;;
77449;SDS011;66536;53.150;18.172;2023-07-22T00:55:35;3.90;;;2.40;;
77449;SDS011;66536;53.150;18.172;2023-07-22T00:58:06;3.70;;;2.10;;
77449;SDS011;66536;53.150;18.172;2023-07-22T01:00:33;5.10;;;2.60;;
77449;SDS011;66536;53.150;18.172;2023-07-22T01:02:59;2.80;;;2.00;;
77449;SDS011;66536;53.150;18.172;2023-07-22T01:05:28;4.70;;;2.70;;
77449;SDS011;66536;53.150;18.172;2023-07-22T01:07:57;4.30;;;2.30;;
77449;SDS011;66536;53.150;18.172;2023-07-22T01:10:25;4.20;;;2.10;;
77449;SDS011;66536;53.150;18.172;2023-07-22T01:12:55;4.20;;;2.30;;
77449;SDS011;66536;53.150;18.172;2023-07-22T01:15:22;4.50;;;2.50;;
77449;SDS011;66536;53.150;18.172;2023-07-22T01:17:51;5.40;;;2.10;;
77449;SDS011;66536;53.150;18.172;2023-07-22T01:20:18;3.70;;;2.50;;
77449;SDS011;66536;53.150;18.172;2023-07-22T01:22:49;3.40;;;2.20;;
77449;SDS011;66536;53.150;18.172;2023-07-22T01:25:19;4.50;;;2.10;;
77449;SDS011;66536;53.150;18.172;2023-07-22T01:27:51;5.10;;;2.00;;
77449;SDS011;66536;53.150;18.172;2023-07-22T01:30:19;4.60;;;2.10;;
77449;SDS011;66536;53.150;18.172;2023-07-22T01:32:48;3.90;;;1.90;;
77449;SDS011;66536;53.150;18.172;2023-07-22T01:35:17;4.90;;;2.40;;
77449;SDS011;66536;53.150;18.172;2023-07-22T01:37:44;4.70;;;2.10;;
77449;SDS011;66536;53.150;18.172;2023-07-22T01:40:11;3.60;;;2.20;;
77449;SDS011;66536;53.150;18.172;2023-07-22T01:42:38;3.10;;;2.00;;
77449;SDS011;66536;53.150;18.172;2023-07-22T01:45:09;4.20;;;2.00;;
77449;SDS011;66536;53.150;18.172;2023-07-22T01:47:37;5.70;;;2.00;;
77449;SDS011;66536;53.150;18.172;2023-07-22T01:50:05;3.80;;;2.20;;
77449;SDS011;66536;53.150;18.172;2023-07-22T01:52:33;4.00;;;2.30;;
77449;SDS011;66536;53.150;18.172;2023-07-22T01:55:03;5.20;;;1.90;;
77449;SDS011;66536;53.150;18.172;2023-07-22T01:57:33;5.10;;;2.80;;
77449;SDS011;66536;53.150;18.172;2023-07-22T02:00:01;3.00;;;2.40;;
77449;SDS011;66536;53.150;18.172;2023-07-22T02:02:39;5.10;;;2.20;;
77449;SDS011;66536;53.150;18.172;2023-07-22T02:05:08;2.60;;;2.20;;
77449;SDS011;66536;53.150;18.172;2023-07-22T02:07:36;3.00;;;2.20;;
77449;SDS011;66536;53.150;18.172;2023-07-22T02:10:05;3.50;;;2.30;;
77449;SDS011;66536;53.150;18.172;2023-07-22T02:12:32;3.80;;;2.40;;
77449;SDS011;66536;53.150;18.172;2023-07-22T02:15:00;4.10;;;2.50;;
77449;SDS011;66536;53.150;18.172;2023-07-22T02:17:48;4.80;;;2.20;;
77449;SDS011;66536;53.150;18.172;2023-07-22T02:20:15;3.20;;;2.30;;
77449;SDS011;66536;53.150;18.172;2023-07-22T02:22:41;4.00;;;2.20;;
77449;SDS011;66536;53.150;18.172;2023-07-22T02:25:09;4.10;;;2.10;;
77449;SDS011;66536;53.150;18.172;2023-07-22T02:27:37;3.40;;;2.30;;
77449;SDS011;66536;53.150;18.172;2023-07-22T02:30:07;3.60;;;2.10;;
77449;SDS011;66536;53.150;18.172;2023-07-22T02:32:39;5.10;;;2.30;;
77449;SDS011;66536;53.150;18.172;2023-07-22T02:35:07;6.00;;;2.70;;
77449;SDS011;66536;53.150;18.172;2023-07-22T02:37:36;5.00;;;2.70;;
77449;SDS011;66536;53.150;18.172;2023-07-22T02:40:05;3.50;;;2.40;;
77449;SDS011;66536;53.150;18.172;2023-07-22T02:42:37;4.90;;;2.60;;
77449;SDS011;66536;53.150;18.172;2023-07-22T02:45:06;5.00;;;2.50;;
77449;SDS011;66536;53.150;18.172;2023-07-22T02:47:34;4.20;;;2.50;;
77449;SDS011;66536;53.150;18.172;2023-07-22T02:50:07;5.00;;;2.80;;
77449;SDS011;66536;53.150;18.172;2023-07-22T02:52:35;4.80;;;2.70;;
77449;SDS011;66536;53.150;18.172;2023-07-22T02:55:04;3.80;;;2.50;;
77449;SDS011;66536;53.150;18.172;2023-07-22T02:57:37;3.40;;;2.30;;
77449;SDS011;66536;53.150;18.172;2023-07-22T03:00:06;4.50;;;2.90;;
77449;SDS011;66536;53.150;18.172;2023-07-22T03:02:35;5.30;;;3.00;;
77449;SDS011;66536;53.150;18.172;2023-07-22T03:05:04;4.80;;;2.70;;
77449;SDS011;66536;53.150;18.172;2023-07-22T03:07:34;3.70;;;2.60;;
77449;SDS011;66536;53.150;18.172;2023-07-22T03:10:01;3.10;;;2.50;;
77449;SDS011;66536;53.150;18.172;2023-07-22T03:12:28;5.80;;;2.70;;
77449;SDS011;66536;53.150;18.172;2023-07-22T03:14:55;4.40;;;2.80;;
77449;SDS011;66536;53.150;18.172;2023-07-22T03:17:21;4.30;;;2.90;;
77449;SDS011;66536;53.150;18.172;2023-07-22T03:19:48;5.60;;;3.40;;
77449;SDS011;66536;53.150;18.172;2023-07-22T03:22:16;6.00;;;3.00;;
77449;SDS011;66536;53.150;18.172;2023-07-22T03:24:43;4.70;;;2.80;;
77449;SDS011;66536;53.150;18.172;2023-07-22T03:27:12;4.60;;;2.90;;
77449;SDS011;66536;53.150;18.172;2023-07-22T03:29:40;6.50;;;2.90;;
77449;SDS011;66536;53.150;18.172;2023-07-22T03:32:07;8.50;;;3.20;;
77449;SDS011;66536;53.150;18.172;2023-07-22T03:34:35;4.70;;;2.80;;
77449;SDS011;66536;53.150;18.172;2023-07-22T03:37:02;4.60;;;3.00;;
77449;SDS011;66536;53.150;18.172;2023-07-22T03:39:29;7.10;;;2.50;;
77449;SDS011;66536;53.150;18.172;2023-07-22T03:41:56;4.20;;;2.30;;
77449;SDS011;66536;53.150;18.172;2023-07-22T03:44:23;4.40;;;2.70;;
77449;SDS011;66536;53.150;18.172;2023-07-22T03:46:50;4.60;;;2.60;;
77449;SDS011;66536;53.150;18.172;2023-07-22T03:49:16;5.40;;;2.30;;
77449;SDS011;66536;53.150;18.172;2023-07-22T03:51:47;5.10;;;2.40;;
77449;SDS011;66536;53.150;18.172;2023-07-22T03:54:14;5.40;;;2.30;;
77449;SDS011;66536;53.150;18.172;2023-07-22T03:56:40;4.70;;;2.80;;
77449;SDS011;66536;53.150;18.172;2023-07-22T03:59:07;5.30;;;2.60;;
77449;SDS011;66536;53.150;18.172;2023-07-22T04:01:34;22.70;;;8.90;;
77449;SDS011;66536;53.150;18.172;2023-07-22T04:04:00;8.10;;;3.20;;
77449;SDS011;66536;53.150;18.172;2023-07-22T04:06:27;3.70;;;2.50;;
77449;SDS011;66536;53.150;18.172;2023-07-22T04:08:54;3.70;;;2.40;;
77449;SDS011;66536;53.150;18.172;2023-07-22T04:11:20;3.80;;;2.60;;
77449;SDS011;66536;53.150;18.172;2023-07-22T04:13:47;4.90;;;2.50;;
77449;SDS011;66536;53.150;18.172;2023-07-22T04:16:16;4.10;;;2.60;;
77449;SDS011;66536;53.150;18.172;2023-07-22T04:18:42;5.90;;;3.10;;
77449;SDS011;66536;53.150;18.172;2023-07-22T04:21:09;5.90;;;2.50;;
77449;SDS011;66536;53.150;18.172;2023-07-22T04:23:38;4.10;;;2.40;;
77449;SDS011;66536;53.150;18.172;2023-07-22T04:26:05;5.20;;;2.60;;
77449;SDS011;66536;53.150;18.172;2023-07-22T04:28:34;5.40;;;2.80;;
77449;SDS011;66536;53.150;18.172;2023-07-22T04:31:01;3.90;;;2.50;;
77449;SDS011;66536;53.150;18.172;2023-07-22T04:33:31;4.50;;;2.70;;
77449;SDS011;66536;53.150;18.172;2023-07-22T04:35:58;7.60;;;2.80;;
77449;SDS011;66536;53.150;18.172;2023-07-22T04:38:26;5.60;;;2.90;;
77449;SDS011;66536;53.150;18.172;2023-07-22T04:40:54;4.90;;;2.80;;
77449;SDS011;66536;53.150;18.172;2023-07-22T04:43:21;3.60;;;2.70;;
77449;SDS011;66536;53.150;18.172;2023-07-22T04:45:48;5.20;;;2.90;;
77449;SDS011;66536;53.150;18.172;2023-07-22T04:48:15;5.90;;;2.80;;
77449;SDS011;66536;53.150;18.172;2023-07-22T04:50:42;4.60;;;3.00;;
77449;SDS011;66536;53.150;18.172;2023-07-22T04:53:12;5.40;;;2.90;;
77449;SDS011;66536;53.150;18.172;2023-07-22T04:55:40;3.60;;;2.40;;
77449;SDS011;66536;53.150;18.172;2023-07-22T04:58:07;4.50;;;2.70;;
77449;SDS011;66536;53.150;18.172;2023-07-22T05:00:35;4.60;;;2.30;;
77449;SDS011;66536;53.150;18.172;2023-07-22T05:03:03;4.60;;;2.70;;
77449;SDS011;66536;53.150;18.172;2023-07-22T05:05:31;3.70;;;2.60;;
77449;SDS011;66536;53.150;18.172;2023-07-22T05:07:58;4.20;;;2.30;;
77449;SDS011;66536;53.150;18.172;2023-07-22T05:10:26;3.30;;;2.50;;
77449;SDS011;66536;53.150;18.172;2023-07-22T05:12:55;5.60;;;2.30;;
77449;SDS011;66536;53.150;18.172;2023-07-22T05:15:23;3.80;;;2.50;;
77449;SDS011;66536;53.150;18.172;2023-07-22T05:17:50;4.70;;;2.60;;
77449;SDS011;66536;53.150;18.172;2023-07-22T05:20:17;3.80;;;2.40;;
77449;SDS011;66536;53.150;18.172;2023-07-22T05:22:44;5.00;;;2.70;;
77449;SDS011;66536;53.150;18.172;2023-07-22T05:25:10;3.30;;;2.60;;
77449;SDS011;66536;53.150;18.172;2023-07-22T05:27:37;5.90;;;2.60;;
77449;SDS011;66536;53.150;18.172;2023-07-22T05:30:05;2.90;;;2.40;;
77449;SDS011;66536;53.150;18.172;2023-07-22T05:32:35;4.00;;;2.50;;
77449;SDS011;66536;53.150;18.172;2023-07-22T05:35:04;4.40;;;2.20;;
77449;SDS011;66536;53.150;18.172;2023-07-22T05:37:31;4.80;;;2.60;;
77449;SDS011;66536;53.150;18.172;2023-07-22T05:39:58;4.10;;;2.70;;
77449;SDS011;66536;53.150;18.172;2023-07-22T05:42:25;3.80;;;2.70;;
77449;SDS011;66536;53.150;18.172;2023-07-22T05:44:53;3.90;;;2.50;;
77449;SDS011;66536;53.150;18.172;2023-07-22T05:47:21;3.60;;;2.50;;
77449;SDS011;66536;53.150;18.172;2023-07-22T05:49:48;4.40;;;2.80;;
77449;SDS011;66536;53.150;18.172;2023-07-22T05:52:15;4.50;;;2.90;;
77449;SDS011;66536;53.150;18.172;2023-07-22T05:54:42;3.80;;;3.00;;
77449;SDS011;66536;53.150;18.172;2023-07-22T05:57:08;4.00;;;2.80;;
77449;SDS011;66536;53.150;18.172;2023-07-22T05:59:35;3.20;;;2.50;;
77449;SDS011;66536;53.150;18.172;2023-07-22T06:02:03;3.20;;;2.80;;
77449;SDS011;66536;53.150;18.172;2023-07-22T06:04:30;4.20;;;3.10;;
77449;SDS011;66536;53.150;18.172;2023-07-22T06:06:58;4.00;;;2.50;;
77449;SDS011;66536;53.150;18.172;2023-07-22T06:09:25;7.70;;;3.20;;
77449;SDS011;66536;53.150;18.172;2023-07-22T06:11:52;4.60;;;3.00;;
77449;SDS011;66536;53.150;18.172;2023-07-22T06:14:19;5.40;;;3.00;;
77449;SDS011;66536;53.150;18.172;2023-07-22T06:16:46;6.40;;;3.30;;
77449;SDS011;66536;53.150;18.172;2023-07-22T06:19:15;3.10;;;2.80;;
77449;SDS011;66536;53.150;18.172;2023-07-22T06:21:42;4.10;;;3.00;;
77449;SDS011;66536;53.150;18.172;2023-07-22T06:24:08;3.20;;;2.50;;
77449;SDS011;66536;53.150;18.172;2023-07-22T06:26:35;3.30;;;3.00;;
77449;SDS011;66536;53.150;18.172;2023-07-22T06:29:03;3.00;;;2.70;;
77449;SDS011;66536;53.150;18.172;2023-07-22T06:31:29;4.30;;;3.10;;
77449;SDS011;66536;53.150;18.172;2023-07-22T06:33:57;3.10;;;2.50;;
77449;SDS011;66536;53.150;18.172;2023-07-22T06:36:26;3.30;;;2.30;;
77449;SDS011;66536;53.150;18.172;2023-07-22T06:38:54;3.40;;;2.50;;
77449;SDS011;66536;53.150;18.172;2023-07-22T06:41:21;3.90;;;2.70;;
77449;SDS011;66536;53.150;18.172;2023-07-22T06:43:50;2.50;;;2.10;;
77449;SDS011;66536;53.150;18.172;2023-07-22T06:46:17;2.30;;;1.90;;
77449;SDS011;66536;53.150;18.172;2023-07-22T06:48:44;4.00;;;2.00;;
77449;SDS011;66536;53.150;18.172;2023-07-22T06:51:10;4.40;;;2.40;;
77449;SDS011;66536;53.150;18.172;2023-07-22T06:53:37;3.40;;;2.30;;
77449;SDS011;66536;53.150;18.172;2023-07-22T06:56:04;3.30;;;2.40;;
77449;SDS011;66536;53.150;18.172;2023-07-22T06:58:30;2.80;;;2.40;;
77449;SDS011;66536;53.150;18.172;2023-07-22T07:00:57;4.10;;;2.70;;
77449;SDS011;66536;53.150;18.172;2023-07-22T07:03:23;4.00;;;2.30;;
77449;SDS011;66536;53.150;18.172;2023-07-22T07:05:52;2.90;;;2.60;;
77449;SDS011;66536;53.150;18.172;2023-07-22T07:08:21;5.60;;;2.30;;
77449;SDS011;66536;53.150;18.172;2023-07-22T07:10:48;3.20;;;2.30;;
77449;SDS011;66536;53.150;18.172;2023-07-22T07:13:16;3.00;;;1.90;;
77449;SDS011;66536;53.150;18.172;2023-07-22T07:15:47;2.80;;;2.10;;
77449;SDS011;66536;53.150;18.172;2023-07-22T07:18:15;2.90;;;2.30;;
77449;SDS011;66536;53.150;18.172;2023-07-22T07:20:42;4.10;;;2.30;;
77449;SDS011;66536;53.150;18.172;2023-07-22T07:23:08;4.00;;;2.20;;
77449;SDS011;66536;53.150;18.172;2023-07-22T07:25:35;5.30;;;2.30;;
77449;SDS011;66536;53.150;18.172;2023-07-22T07:28:03;2.70;;;2.30;;
77449;SDS011;66536;53.150;18.172;2023-07-22T07:30:31;3.70;;;2.40;;
77449;SDS011;66536;53.150;18.172;2023-07-22T07:32:58;5.60;;;2.40;;
77449;SDS011;66536;53.150;18.172;2023-07-22T07:35:24;4.40;;;2.00;;
77449;SDS011;66536;53.150;18.172;2023-07-22T07:37:51;3.50;;;2.10;;
77449;SDS011;66536;53.150;18.172;2023-07-22T07:40:18;3.70;;;1.90;;
77449;SDS011;66536;53.150;18.172;2023-07-22T07:42:46;5.00;;;2.30;;
77449;SDS011;66536;53.150;18.172;2023-07-22T07:45:13;4.50;;;2.40;;
77449;SDS011;66536;53.150;18.172;2023-07-22T07:47:39;4.10;;;2.20;;
77449;SDS011;66536;53.150;18.172;2023-07-22T07:50:06;3.40;;;2.20;;
77449;SDS011;66536;53.150;18.172;2023-07-22T07:52:33;3.90;;;2.30;;
77449;SDS011;66536;53.150;18.172;2023-07-22T07:55:00;2.90;;;2.00;;
77449;SDS011;66536;53.150;18.172;2023-07-22T07:57:29;4.10;;;2.00;;
77449;SDS011;66536;53.150;18.172;2023-07-22T07:59:55;5.10;;;1.80;;
77449;SDS011;66536;53.150;18.172;2023-07-22T08:02:22;2.30;;;1.90;;
77449;SDS011;66536;53.150;18.172;2023-07-22T08:04:48;2.10;;;1.90;;
77449;SDS011;66536;53.150;18.172;2023-07-22T08:07:17;4.30;;;1.70;;
77449;SDS011;66536;53.150;18.172;2023-07-22T08:09:46;5.40;;;2.00;;
77449;SDS011;66536;53.150;18.172;2023-07-22T08:12:16;3.20;;;1.70;;
77449;SDS011;66536;53.150;18.172;2023-07-22T08:14:42;3.50;;;1.80;;
77449;SDS011;66536;53.150;18.172;2023-07-22T08:17:09;3.30;;;1.70;;
77449;SDS011;66536;53.150;18.172;2023-07-22T08:19:36;2.80;;;1.60;;
77449;SDS011;66536;53.150;18.172;2023-07-22T08:22:03;2.80;;;1.80;;
77449;SDS011;66536;53.150;18.172;2023-07-22T08:24:30;2.50;;;1.80;;
77449;SDS011;66536;53.150;18.172;2023-07-22T08:26:56;4.50;;;1.80;;
77449;SDS011;66536;53.150;18.172;2023-07-22T08:29:23;4.90;;;1.90;;
77449;SDS011;66536;53.150;18.172;2023-07-22T08:31:49;5.00;;;2.00;;
77449;SDS011;66536;53.150;18.172;2023-07-22T08:34:16;3.70;;;1.90;;
77449;SDS011;66536;53.150;18.172;2023-07-22T08:36:42;2.70;;;1.80;;
77449;SDS011;66536;53.150;18.172;2023-07-22T08:39:13;5.40;;;2.20;;
77449;SDS011;66536;53.150;18.172;2023-07-22T08:41:41;2.50;;;2.20;;
77449;SDS011;66536;53.150;18.172;2023-07-22T08:44:14;5.90;;;2.10;;
77449;SDS011;66536;53.150;18.172;2023-07-22T08:46:45;5.50;;;1.90;;
77449;SDS011;66536;53.150;18.172;2023-07-22T08:49:14;2.20;;;1.80;;
77449;SDS011;66536;53.150;18.172;2023-07-22T08:51:41;5.10;;;2.10;;
77449;SDS011;66536;53.150;18.172;2023-07-22T08:54:10;2.20;;;1.90;;
77449;SDS011;66536;53.150;18.172;2023-07-22T08:56:40;2.50;;;1.90;;
77449;SDS011;66536;53.150;18.172;2023-07-22T08:59:08;3.40;;;2.10;;
77449;SDS011;66536;53.150;18.172;2023-07-22T09:01:36;4.20;;;2.10;;
77449;SDS011;66536;53.150;18.172;2023-07-22T09:04:05;3.70;;;2.70;;
77449;SDS011;66536;53.150;18.172;2023-07-22T09:06:32;2.90;;;2.10;;
77449;SDS011;66536;53.150;18.172;2023-07-22T09:09:00;2.90;;;2.60;;
77449;SDS011;66536;53.150;18.172;2023-07-22T09:11:31;3.20;;;2.10;;
77449;SDS011;66536;53.150;18.172;2023-07-22T09:13:57;7.20;;;2.10;;
77449;SDS011;66536;53.150;18.172;2023-07-22T09:16:27;2.50;;;2.10;;
77449;SDS011;66536;53.150;18.172;2023-07-22T09:18:57;3.50;;;2.40;;
77449;SDS011;66536;53.150;18.172;2023-07-22T09:21:24;4.80;;;2.70;;
77449;SDS011;66536;53.150;18.172;2023-07-22T09:23:51;3.10;;;2.70;;
77449;SDS011;66536;53.150;18.172;2023-07-22T09:26:18;2.90;;;2.60;;
77449;SDS011;66536;53.150;18.172;2023-07-22T09:28:54;3.20;;;2.90;;
77449;SDS011;66536;53.150;18.172;2023-07-22T09:31:22;4.20;;;3.30;;
77449;SDS011;66536;53.150;18.172;2023-07-22T09:33:52;6.00;;;3.30;;
77449;SDS011;66536;53.150;18.172;2023-07-22T09:36:20;4.40;;;3.70;;
77449;SDS011;66536;53.150;18.172;2023-07-22T09:39:06;4.10;;;3.60;;
77449;SDS011;66536;53.150;18.172;2023-07-22T09:41:41;3.80;;;3.50;;
77449;SDS011;66536;53.150;18.172;2023-07-22T09:44:09;4.10;;;3.70;;
77449;SDS011;66536;53.150;18.172;2023-07-22T09:46:37;17.20;;;4.20;;
77449;SDS011;66536;53.150;18.172;2023-07-22T09:49:05;6.40;;;3.80;;
77449;SDS011;66536;53.150;18.172;2023-07-22T09:51:34;5.60;;;4.20;;
77449;SDS011;66536;53.150;18.172;2023-07-22T09:54:02;4.70;;;4.10;;
77449;SDS011;66536;53.150;18.172;2023-07-22T09:56:32;5.70;;;5.00;;
77449;SDS011;66536;53.150;18.172;2023-07-22T09:59:08;5.10;;;4.30;;
77449;SDS011;66536;53.150;18.172;2023-07-22T10:01:38;5.60;;;4.80;;
77449;SDS011;66536;53.150;18.172;2023-07-22T10:04:06;5.90;;;5.30;;
77449;SDS011;66536;53.150;18.172;2023-07-22T10:06:33;8.00;;;5.10;;
77449;SDS011;66536;53.150;18.172;2023-07-22T10:09:01;6.70;;;5.20;;
77449;SDS011;66536;53.150;18.172;2023-07-22T10:11:34;5.60;;;5.10;;
77449;SDS011;66536;53.150;18.172;2023-07-22T10:14:02;5.50;;;5.00;;
77449;SDS011;66536;53.150;18.172;2023-07-22T10:16:29;7.90;;;5.70;;
77449;SDS011;66536;53.150;18.172;2023-07-22T10:18:56;6.20;;;5.60;;
77449;SDS011;66536;53.150;18.172;2023-07-22T10:21:24;6.80;;;5.10;;
77449;SDS011;66536;53.150;18.172;2023-07-22T10:23:52;6.30;;;5.80;;
77449;SDS011;66536;53.150;18.172;2023-07-22T10:26:19;8.70;;;5.40;;
77449;SDS011;66536;53.150;18.172;2023-07-22T10:28:46;6.20;;;5.70;;
77449;SDS011;66536;53.150;18.172;2023-07-22T10:31:14;7.10;;;5.10;;
77449;SDS011;66536;53.150;18.172;2023-07-22T10:33:46;4.70;;;4.00;;
77449;SDS011;66536;53.150;18.172;2023-07-22T10:36:15;4.50;;;4.10;;
77449;SDS011;66536;53.150;18.172;2023-07-22T10:38:42;4.80;;;3.60;;
77449;SDS011;66536;53.150;18.172;2023-07-22T10:41:11;3.70;;;3.30;;
77449;SDS011;66536;53.150;18.172;2023-07-22T10:43:39;3.70;;;3.30;;
77449;SDS011;66536;53.150;18.172;2023-07-22T10:46:10;5.10;;;3.30;;
77449;SDS011;66536;53.150;18.172;2023-07-22T10:48:39;4.60;;;3.30;;
77449;SDS011;66536;53.150;18.172;2023-07-22T10:51:10;4.70;;;3.40;;
77449;SDS011;66536;53.150;18.172;2023-07-22T10:53:42;3.70;;;3.40;;
77449;SDS011;66536;53.150;18.172;2023-07-22T10:56:16;5.00;;;3.00;;
77449;SDS011;66536;53.150;18.172;2023-07-22T11:01:33;5.20;;;3.20;;
77449;SDS011;66536;53.150;18.172;2023-07-22T11:04:06;6.10;;;3.30;;
77449;SDS011;66536;53.150;18.172;2023-07-22T11:06:34;7.60;;;3.10;;
77449;SDS011;66536;53.150;18.172;2023-07-22T11:09:02;4.70;;;3.00;;
77449;SDS011;66536;53.150;18.172;2023-07-22T11:14:17;3.70;;;3.40;;
77449;SDS011;66536;53.150;18.172;2023-07-22T11:16:47;4.40;;;3.00;;
77449;SDS011;66536;53.150;18.172;2023-07-22T11:19:15;8.30;;;7.60;;
77449;SDS011;66536;53.150;18.172;2023-07-22T11:21:43;3.00;;;2.70;;
77449;SDS011;66536;53.150;18.172;2023-07-22T11:24:11;3.00;;;2.70;;
77449;SDS011;66536;53.150;18.172;2023-07-22T11:26:38;4.70;;;2.90;;
77449;SDS011;66536;53.150;18.172;2023-07-22T11:29:07;5.80;;;3.30;;
77449;SDS011;66536;53.150;18.172;2023-07-22T11:31:35;4.50;;;2.80;;
77449;SDS011;66536;53.150;18.172;2023-07-22T11:34:09;5.90;;;3.30;;
77449;SDS011;66536;53.150;18.172;2023-07-22T11:36:36;3.50;;;3.20;;
77449;SDS011;66536;53.150;18.172;2023-07-22T11:39:04;3.70;;;3.40;;
77449;SDS011;66536;53.150;18.172;2023-07-22T11:41:35;5.60;;;3.10;;
77449;SDS011;66536;53.150;18.172;2023-07-22T11:44:03;3.40;;;2.80;;
77449;SDS011;66536;53.150;18.172;2023-07-22T11:46:51;2.80;;;2.60;;
77449;SDS011;66536;53.150;18.172;2023-07-22T11:49:22;5.00;;;3.00;;
77449;SDS011;66536;53.150;18.172;2023-07-22T11:51:51;4.40;;;2.70;;
77449;SDS011;66536;53.150;18.172;2023-07-22T11:54:21;3.50;;;2.90;;
77449;SDS011;66536;53.150;18.172;2023-07-22T11:56:48;2.60;;;2.10;;
77449;SDS011;66536;53.150;18.172;2023-07-22T12:02:06;3.60;;;2.30;;
77449;SDS011;66536;53.150;18.172;2023-07-22T12:04:34;2.70;;;2.50;;
77449;SDS011;66536;53.150;18.172;2023-07-22T12:07:01;3.80;;;2.30;;
77449;SDS011;66536;53.150;18.172;2023-07-22T12:09:30;4.50;;;2.60;;
77449;SDS011;66536;53.150;18.172;2023-07-22T12:11:58;5.20;;;2.50;;
77449;SDS011;66536;53.150;18.172;2023-07-22T12:14:34;2.90;;;2.40;;
77449;SDS011;66536;53.150;18.172;2023-07-22T12:17:02;3.70;;;2.40;;
77449;SDS011;66536;53.150;18.172;2023-07-22T12:19:28;5.30;;;3.00;;
77449;SDS011;66536;53.150;18.172;2023-07-22T12:21:56;3.40;;;2.50;;
77449;SDS011;66536;53.150;18.172;2023-07-22T12:24:23;3.40;;;3.00;;
77449;SDS011;66536;53.150;18.172;2023-07-22T12:26:50;3.00;;;2.70;;
77449;SDS011;66536;53.150;18.172;2023-07-22T12:29:17;4.30;;;3.10;;
77449;SDS011;66536;53.150;18.172;2023-07-22T12:31:43;3.20;;;2.90;;
77449;SDS011;66536;53.150;18.172;2023-07-22T12:34:12;4.30;;;3.10;;
77449;SDS011;66536;53.150;18.172;2023-07-22T12:36:39;3.20;;;2.90;;
77449;SDS011;66536;53.150;18.172;2023-07-22T12:39:10;3.80;;;3.10;;
77449;SDS011;66536;53.150;18.172;2023-07-22T12:41:37;4.50;;;3.10;;
77449;SDS011;66536;53.150;18.172;2023-07-22T12:44:04;4.40;;;3.00;;
77449;SDS011;66536;53.150;18.172;2023-07-22T12:46:31;3.60;;;3.00;;
77449;SDS011;66536;53.150;18.172;2023-07-22T12:48:59;8.60;;;3.50;;
77449;SDS011;66536;53.150;18.172;2023-07-22T12:51:26;5.90;;;2.90;;
77449;SDS011;66536;53.150;18.172;2023-07-22T12:53:53;3.20;;;3.00;;
77449;SDS011;66536;53.150;18.172;2023-07-22T12:56:23;7.50;;;3.40;;
77449;SDS011;66536;53.150;18.172;2023-07-22T12:58:49;2.90;;;2.70;;
77449;SDS011;66536;53.150;18.172;2023-07-22T13:01:17;2.90;;;2.70;;
77449;SDS011;66536;53.150;18.172;2023-07-22T13:03:44;3.00;;;2.70;;
77449;SDS011;66536;53.150;18.172;2023-07-22T13:06:15;4.50;;;3.20;;
77449;SDS011;66536;53.150;18.172;2023-07-22T13:08:41;3.20;;;2.80;;
77449;SDS011;66536;53.150;18.172;2023-07-22T13:11:08;2.80;;;2.20;;
77449;SDS011;66536;53.150;18.172;2023-07-22T13:13:35;4.00;;;2.50;;
77449;SDS011;66536;53.150;18.172;2023-07-22T13:16:04;3.10;;;2.30;;
77449;SDS011;66536;53.150;18.172;2023-07-22T13:18:31;3.20;;;2.30;;
77449;SDS011;66536;53.150;18.172;2023-07-22T13:20:58;3.50;;;3.20;;
77449;SDS011;66536;53.150;18.172;2023-07-22T13:23:25;7.50;;;4.40;;
77449;SDS011;66536;53.150;18.172;2023-07-22T13:25:51;5.00;;;3.20;;
77449;SDS011;66536;53.150;18.172;2023-07-22T13:28:22;3.10;;;2.90;;
77449;SDS011;66536;53.150;18.172;2023-07-22T13:30:49;7.70;;;3.60;;
77449;SDS011;66536;53.150;18.172;2023-07-22T13:33:15;4.50;;;2.90;;
77449;SDS011;66536;53.150;18.172;2023-07-22T13:35:43;3.70;;;3.10;;
77449;SDS011;66536;53.150;18.172;2023-07-22T13:38:10;3.50;;;3.10;;
77449;SDS011;66536;53.150;18.172;2023-07-22T13:40:41;9.80;;;3.80;;
77449;SDS011;66536;53.150;18.172;2023-07-22T13:43:10;4.40;;;3.20;;
77449;SDS011;66536;53.150;18.172;2023-07-22T13:45:37;3.80;;;2.90;;
77449;SDS011;66536;53.150;18.172;2023-07-22T13:48:03;4.20;;;3.00;;
77449;SDS011;66536;53.150;18.172;2023-07-22T13:50:30;3.10;;;2.80;;
77449;SDS011;66536;53.150;18.172;2023-07-22T13:52:57;5.60;;;2.70;;
77449;SDS011;66536;53.150;18.172;2023-07-22T13:55:24;7.00;;;3.10;;
77449;SDS011;66536;53.150;18.172;2023-07-22T13:57:50;4.30;;;3.00;;
77449;SDS011;66536;53.150;18.172;2023-07-22T14:00:18;3.10;;;2.80;;
77449;SDS011;66536;53.150;18.172;2023-07-22T14:02:44;4.80;;;3.20;;
77449;SDS011;66536;53.150;18.172;2023-07-22T14:05:11;5.30;;;2.80;;
77449;SDS011;66536;53.150;18.172;2023-07-22T14:07:38;5.40;;;3.10;;
77449;SDS011;66536;53.150;18.172;2023-07-22T14:10:09;4.70;;;2.80;;
77449;SDS011;66536;53.150;18.172;2023-07-22T14:12:36;3.50;;;3.20;;
77449;SDS011;66536;53.150;18.172;2023-07-22T14:15:03;3.00;;;2.70;;
77449;SDS011;66536;53.150;18.172;2023-07-22T14:17:31;7.20;;;3.00;;
77449;SDS011;66536;53.150;18.172;2023-07-22T14:19:59;3.00;;;2.70;;
77449;SDS011;66536;53.150;18.172;2023-07-22T14:22:25;3.40;;;2.80;;
77449;SDS011;66536;53.150;18.172;2023-07-22T14:24:57;6.50;;;2.90;;
77449;SDS011;66536;53.150;18.172;2023-07-22T14:27:24;5.90;;;3.10;;
77449;SDS011;66536;53.150;18.172;2023-07-22T14:29:51;3.80;;;2.80;;
77449;SDS011;66536;53.150;18.172;2023-07-22T14:32:17;3.50;;;3.20;;
77449;SDS011;66536;53.150;18.172;2023-07-22T14:34:44;4.80;;;3.00;;
77449;SDS011;66536;53.150;18.172;2023-07-22T14:37:13;3.40;;;3.10;;
77449;SDS011;66536;53.150;18.172;2023-07-22T14:39:40;3.40;;;3.10;;
77449;SDS011;66536;53.150;18.172;2023-07-22T14:42:10;4.00;;;3.50;;
77449;SDS011;66536;53.150;18.172;2023-07-22T14:44:37;3.70;;;3.20;;
77449;SDS011;66536;53.150;18.172;2023-07-22T14:47:06;3.70;;;3.30;;